createdAt,value
2017-10-29T00:00:09.513Z,100.0
2017-10-29T00:01:11.626Z,100.0
2017-10-29T00:02:56.955Z,100.0
2017-10-29T00:03:59.251Z,100.0
2017-10-29T00:05:01.456Z,100.0
2017-10-29T00:06:03.540Z,100.0
2017-10-29T00:07:05.439Z,100.0
2017-10-29T00:08:07.318Z,100.0
2017-10-29T00:09:09.378Z,100.0
2017-10-29T00:10:11.282Z,100.0
2017-10-29T00:11:13.171Z,100.0
2017-10-29T00:12:56.905Z,100.0
2017-10-29T00:14:00.867Z,100.0
2017-10-29T00:15:03.290Z,100.0
2017-10-29T00:16:05.208Z,100.0
2017-10-29T00:17:07.288Z,100.0
2017-10-29T00:18:50.522Z,100.0
2017-10-29T00:20:36.037Z,100.0
2017-10-29T00:21:38.101Z,100.0
2017-10-29T00:23:22.189Z,100.0
2017-10-29T00:25:05.087Z,100.0
2017-10-29T00:26:10.766Z,100.0
2017-10-29T00:27:12.820Z,100.0
2017-10-29T00:28:14.724Z,100.0
2017-10-29T00:29:16.741Z,100.0
2017-10-29T00:30:18.730Z,100.0
2017-10-29T00:32:03.540Z,100.0
2017-10-29T00:33:48.155Z,100.0
2017-10-29T00:35:32.462Z,100.0
2017-10-29T00:36:36.861Z,100.0
2017-10-29T00:37:38.688Z,100.0
2017-10-29T00:38:40.727Z,100.0
2017-10-29T00:40:27.356Z,100.0
2017-10-29T00:42:13.192Z,100.0
2017-10-29T00:43:18.965Z,100.0
2017-10-29T00:44:20.831Z,100.0
2017-10-29T00:46:04.516Z,100.0
2017-10-29T00:47:07.514Z,100.0
2017-10-29T00:48:53.263Z,100.0
2017-10-29T00:49:58.377Z,100.0
2017-10-29T00:51:00.345Z,100.0
2017-10-29T00:52:42.112Z,100.0
2017-10-29T00:54:24.619Z,100.0
2017-10-29T00:56:08.027Z,100.0
2017-10-29T00:57:12.087Z,100.0
2017-10-29T00:58:14.071Z,100.0
2017-10-29T00:59:16.041Z,100.0
2017-10-29T01:00:17.971Z,100.0
2017-10-29T01:01:19.914Z,100.0
2017-10-29T01:03:02.403Z,100.0
2017-10-29T01:04:45.132Z,100.0
2017-10-29T01:05:48.652Z,100.0
2017-10-29T01:06:50.509Z,100.0
2017-10-29T01:07:52.383Z,100.0
2017-10-29T01:08:54.301Z,100.0
2017-10-29T01:10:39.700Z,100.0
2017-10-29T01:11:41.649Z,100.0
2017-10-29T01:12:43.452Z,100.0
2017-10-29T01:13:45.326Z,100.0
2017-10-29T01:14:47.178Z,100.0
2017-10-29T01:15:49.094Z,100.0
2017-10-29T01:17:31.671Z,100.0
2017-10-29T01:18:34.733Z,100.0
2017-10-29T01:19:36.687Z,100.0
2017-10-29T01:20:38.736Z,100.0
2017-10-29T01:21:40.768Z,100.0
2017-10-29T01:22:42.721Z,100.0
2017-10-29T01:23:44.720Z,100.0
2017-10-29T01:24:46.649Z,100.0
2017-10-29T01:25:48.486Z,100.0
2017-10-29T01:27:32.247Z,100.0
2017-10-29T01:28:35.068Z,100.0
2017-10-29T01:29:36.947Z,100.0
2017-10-29T01:30:38.865Z,100.0
2017-10-29T01:31:40.743Z,100.0
2017-10-29T01:33:24.068Z,100.0
2017-10-29T01:34:29.086Z,100.0
2017-10-29T01:35:31.085Z,100.0
2017-10-29T01:36:33.068Z,100.0
2017-10-29T01:37:35.099Z,100.0
2017-10-29T01:39:18.047Z,100.0
2017-10-29T01:40:23.515Z,100.0
2017-10-29T01:41:25.404Z,100.0
2017-10-29T01:42:27.251Z,100.0
2017-10-29T01:43:29.141Z,100.0
2017-10-29T01:44:31.076Z,100.0
2017-10-29T01:45:33.034Z,100.0
2017-10-29T01:46:34.897Z,100.0
2017-10-29T01:47:36.803Z,100.0
2017-10-29T01:48:38.683Z,100.0
2017-10-29T01:49:40.652Z,100.0
2017-10-29T01:50:42.569Z,100.0
2017-10-29T01:51:44.407Z,100.0
2017-10-29T01:53:28.062Z,100.0
2017-10-29T01:54:30.853Z,100.0
2017-10-29T01:56:14.253Z,100.0
2017-10-29T01:57:18.847Z,100.0
2017-10-29T01:58:20.537Z,100.0
2017-10-29T02:00:04.294Z,100.0
2017-10-29T02:01:06.923Z,100.0
2017-10-29T02:02:08.775Z,100.0
2017-10-29T02:03:50.512Z,100.0
2017-10-29T02:04:53.938Z,100.0
2017-10-29T02:05:55.800Z,100.0
2017-10-29T02:06:57.703Z,100.0
2017-10-29T02:07:59.636Z,100.0
2017-10-29T02:09:01.565Z,100.0
2017-10-29T02:10:03.528Z,100.0
2017-10-29T02:11:05.481Z,100.0
2017-10-29T02:12:48.688Z,100.0
2017-10-29T02:13:52.016Z,100.0
2017-10-29T02:14:53.870Z,100.0
2017-10-29T02:15:55.681Z,100.0
2017-10-29T02:16:57.637Z,100.0
2017-10-29T02:18:40.547Z,100.0
2017-10-29T02:20:21.996Z,100.0
2017-10-29T02:21:25.537Z,100.0
2017-10-29T02:22:27.360Z,100.0
2017-10-29T02:23:29.324Z,100.0
2017-10-29T02:24:31.220Z,100.0
2017-10-29T02:25:33.130Z,100.0
2017-10-29T02:26:35.085Z,100.0
2017-10-29T02:27:36.902Z,100.0
2017-10-29T02:28:38.723Z,100.0
2017-10-29T02:30:22.104Z,100.0
2017-10-29T02:31:28.419Z,100.0
2017-10-29T02:32:30.319Z,100.0
2017-10-29T02:34:13.294Z,100.0
2017-10-29T02:35:15.602Z,100.0
2017-10-29T02:36:17.449Z,100.0
2017-10-29T02:37:19.397Z,100.0
2017-10-29T02:38:21.333Z,100.0
2017-10-29T02:39:23.297Z,100.0
2017-10-29T02:40:25.217Z,100.0
2017-10-29T02:41:27.131Z,100.0
2017-10-29T02:42:29.032Z,100.0
2017-10-29T02:43:30.871Z,100.0
2017-10-29T02:44:32.822Z,100.0
2017-10-29T02:45:34.664Z,100.0
2017-10-29T02:46:36.528Z,100.0
2017-10-29T02:47:38.367Z,100.0
2017-10-29T02:48:40.237Z,100.0
2017-10-29T02:49:42.152Z,100.0
2017-10-29T02:50:44.048Z,100.0
2017-10-29T02:51:45.889Z,100.0
2017-10-29T02:52:47.728Z,100.0
2017-10-29T02:54:30.500Z,100.0
2017-10-29T02:55:33.817Z,100.0
2017-10-29T02:56:35.507Z,100.0
2017-10-29T02:57:37.286Z,100.0
2017-10-29T02:58:39.111Z,100.0
2017-10-29T02:59:41.029Z,99.5
2017-10-29T03:00:42.977Z,99.7
2017-10-29T03:01:44.858Z,99.6
2017-10-29T03:02:46.795Z,99.8
2017-10-29T03:03:48.648Z,99.6
2017-10-29T03:04:50.505Z,99.9
2017-10-29T03:05:52.410Z,99.0
2017-10-29T03:06:54.320Z,99.0
2017-10-29T03:07:56.115Z,98.8
2017-10-29T03:08:58.118Z,98.8
2017-10-29T03:10:00.094Z,98.9
2017-10-29T03:11:01.949Z,98.8
2017-10-29T03:12:03.904Z,98.6
2017-10-29T03:13:05.833Z,98.5
2017-10-29T03:14:49.323Z,98.4
2017-10-29T03:15:52.298Z,98.5
2017-10-29T03:16:54.184Z,97.7
2017-10-29T03:17:56.011Z,97.6
2017-10-29T03:18:57.925Z,97.1
2017-10-29T03:19:59.822Z,97.5
2017-10-29T03:21:01.706Z,97.2
2017-10-29T03:22:03.586Z,97.2
2017-10-29T03:23:05.540Z,96.6
2017-10-29T03:24:07.496Z,96.9
2017-10-29T03:25:50.264Z,96.4
2017-10-29T03:26:54.374Z,96.1
2017-10-29T03:27:56.082Z,95.7
2017-10-29T03:28:57.984Z,95.2
2017-10-29T03:29:59.890Z,95.5
2017-10-29T03:31:01.927Z,95.4
2017-10-29T03:32:45.074Z,94.5
2017-10-29T03:34:29.890Z,94.6
2017-10-29T03:35:31.211Z,94.8
2017-10-29T03:36:33.169Z,95.0
2017-10-29T03:37:35.145Z,94.8
2017-10-29T03:38:37.048Z,94.2
2017-10-29T03:40:20.878Z,94.1
2017-10-29T03:41:23.254Z,94.0
2017-10-29T03:43:04.680Z,94.2
2017-10-29T03:44:07.413Z,94.6
2017-10-29T03:45:09.048Z,95.1
2017-10-29T03:46:11.011Z,95.4
2017-10-29T03:47:12.787Z,96.1
2017-10-29T03:48:14.548Z,96.8
2017-10-29T03:49:16.400Z,96.8
2017-10-29T03:50:18.204Z,96.9
2017-10-29T03:51:20.088Z,97.3
2017-10-29T03:52:21.774Z,97.7
2017-10-29T03:53:23.606Z,98.2
2017-10-29T03:54:25.499Z,98.4
2017-10-29T03:55:27.369Z,99.1
2017-10-29T03:56:29.216Z,99.7
2017-10-29T03:57:31.174Z,99.3
2017-10-29T03:58:33.037Z,99.2
2017-10-29T03:59:35.089Z,99.7
2017-10-29T04:00:37.098Z,99.2
2017-10-29T04:01:38.960Z,99.1
2017-10-29T04:02:40.900Z,98.4
2017-10-29T04:03:42.823Z,99.2
2017-10-29T04:04:44.814Z,99.9
2017-10-29T04:05:46.645Z,99.0
2017-10-29T04:06:48.660Z,99.2
2017-10-29T04:07:50.560Z,99.4
2017-10-29T04:08:52.444Z,99.5
2017-10-29T04:09:54.145Z,98.9
2017-10-29T04:10:56.086Z,98.8
2017-10-29T04:12:37.895Z,98.9
2017-10-29T04:13:39.972Z,99.1
2017-10-29T04:14:42.463Z,98.8
2017-10-29T04:15:44.382Z,98.6
2017-10-29T04:16:46.295Z,99.3
2017-10-29T04:17:48.103Z,98.6
2017-10-29T04:18:49.968Z,98.9
2017-10-29T04:19:51.801Z,99.6
2017-10-29T04:20:53.603Z,99.6
2017-10-29T04:21:55.371Z,99.5
2017-10-29T04:22:57.206Z,99.6
2017-10-29T04:23:59.137Z,100.0
2017-10-29T04:25:01.067Z,100.0
2017-10-29T04:26:02.893Z,100.0
2017-10-29T04:27:04.923Z,100.0
2017-10-29T04:28:06.722Z,100.0
2017-10-29T04:29:08.660Z,100.0
2017-10-29T04:30:10.421Z,100.0
2017-10-29T04:31:12.284Z,100.0
2017-10-29T04:32:14.129Z,100.0
2017-10-29T04:33:16.062Z,100.0
2017-10-29T04:34:17.951Z,100.0
2017-10-29T04:35:19.788Z,100.0
2017-10-29T04:36:21.967Z,100.0
2017-10-29T04:37:23.710Z,98.9
2017-10-29T04:38:25.696Z,98.4
2017-10-29T04:39:27.493Z,98.1
2017-10-29T04:40:29.397Z,98.1
2017-10-29T04:41:31.185Z,98.6
2017-10-29T04:42:33.077Z,98.6
2017-10-29T04:43:35.067Z,98.4
2017-10-29T04:44:36.748Z,98.5
2017-10-29T04:45:38.691Z,98.0
2017-10-29T04:46:40.633Z,98.0
2017-10-29T04:47:42.568Z,98.1
2017-10-29T04:48:44.500Z,98.2
2017-10-29T04:49:46.456Z,97.7
2017-10-29T04:50:48.323Z,97.6
2017-10-29T04:51:50.161Z,97.0
2017-10-29T04:52:52.015Z,97.1
2017-10-29T04:53:53.796Z,97.4
2017-10-29T04:54:55.748Z,97.1
2017-10-29T04:55:57.744Z,96.8
2017-10-29T04:56:59.711Z,97.0
2017-10-29T04:58:01.831Z,96.7
2017-10-29T04:59:43.558Z,96.1
2017-10-29T05:00:46.820Z,96.2
2017-10-29T05:01:48.610Z,96.0
2017-10-29T05:02:50.535Z,95.7
2017-10-29T05:03:52.465Z,95.6
2017-10-29T05:04:54.456Z,95.0
2017-10-29T05:05:56.531Z,95.6
2017-10-29T05:06:58.520Z,96.0
2017-10-29T05:08:00.564Z,96.2
2017-10-29T05:09:02.548Z,96.1
2017-10-29T05:10:04.526Z,96.3
2017-10-29T05:11:06.475Z,95.3
2017-10-29T05:12:49.947Z,95.9
2017-10-29T05:13:53.181Z,96.0
2017-10-29T05:14:54.916Z,95.6
2017-10-29T05:15:56.883Z,95.2
2017-10-29T05:16:58.852Z,95.6
2017-10-29T05:18:00.827Z,95.7
2017-10-29T05:19:02.770Z,96.0
2017-10-29T05:20:04.595Z,95.4
2017-10-29T05:21:06.491Z,96.1
2017-10-29T05:22:08.310Z,96.1
2017-10-29T05:23:10.248Z,95.6
2017-10-29T05:24:12.034Z,95.1
2017-10-29T05:25:14.092Z,95.2
2017-10-29T05:26:16.097Z,95.8
2017-10-29T05:27:17.824Z,95.7
2017-10-29T05:28:19.682Z,95.4
2017-10-29T05:29:21.515Z,95.2
2017-10-29T05:30:23.354Z,95.0
2017-10-29T05:31:25.366Z,94.8
2017-10-29T05:32:27.313Z,94.8
2017-10-29T05:33:29.353Z,95.0
2017-10-29T05:34:31.076Z,94.3
2017-10-29T05:35:33.062Z,94.3
2017-10-29T05:36:34.981Z,94.2
2017-10-29T05:37:36.635Z,94.1
2017-10-29T05:38:38.546Z,94.3
2017-10-29T05:39:40.628Z,94.2
2017-10-29T05:40:42.354Z,93.5
2017-10-29T05:41:44.284Z,93.3
2017-10-29T05:42:46.361Z,92.1
2017-10-29T05:43:48.055Z,91.6
2017-10-29T05:44:49.867Z,92.0
2017-10-29T05:45:51.931Z,91.2
2017-10-29T05:46:53.915Z,90.2
2017-10-29T05:47:55.715Z,89.9
2017-10-29T05:48:57.640Z,89.6
2017-10-29T05:49:59.527Z,89.0
2017-10-29T05:51:01.522Z,88.8
2017-10-29T05:52:03.342Z,89.3
2017-10-29T05:53:05.206Z,89.5
2017-10-29T05:54:07.069Z,89.7
2017-10-29T05:55:08.913Z,88.6
2017-10-29T05:56:10.736Z,88.0
2017-10-29T05:57:12.725Z,88.3
2017-10-29T05:58:14.715Z,88.3
2017-10-29T05:59:16.521Z,87.8
2017-10-29T06:00:18.657Z,88.1
2017-10-29T06:01:20.467Z,88.7
2017-10-29T06:02:22.467Z,88.5
2017-10-29T06:03:24.301Z,88.7
2017-10-29T06:04:26.329Z,89.0
2017-10-29T06:05:28.286Z,86.9
2017-10-29T06:06:30.268Z,86.4
2017-10-29T06:07:32.106Z,86.9
2017-10-29T06:08:34.072Z,87.2
2017-10-29T06:09:36.060Z,87.7
2017-10-29T06:10:38.091Z,87.7
2017-10-29T06:11:40.070Z,87.8
2017-10-29T06:12:41.952Z,87.2
2017-10-29T06:13:43.835Z,86.4
2017-10-29T06:14:45.725Z,85.6
2017-10-29T06:15:47.557Z,86.2
2017-10-29T06:16:49.438Z,86.5
2017-10-29T06:17:51.362Z,85.6
2017-10-29T06:18:53.219Z,85.4
2017-10-29T06:19:55.240Z,84.9
2017-10-29T06:20:57.316Z,84.3
2017-10-29T06:21:59.295Z,83.9
2017-10-29T06:23:01.247Z,83.8
2017-10-29T06:24:03.148Z,83.1
2017-10-29T06:25:05.063Z,81.6
2017-10-29T06:26:07.025Z,82.4
2017-10-29T06:27:09.014Z,83.5
2017-10-29T06:28:11.164Z,82.7
2017-10-29T06:29:13.080Z,83.0
2017-10-29T06:30:15.167Z,83.5
2017-10-29T06:31:16.933Z,83.2
2017-10-29T06:32:18.921Z,83.2
2017-10-29T06:33:20.891Z,82.9
2017-10-29T06:34:22.712Z,83.3
2017-10-29T06:35:24.722Z,83.6
2017-10-29T06:36:26.712Z,83.2
2017-10-29T06:37:28.621Z,81.5
2017-10-29T06:38:30.506Z,82.0
2017-10-29T06:39:32.465Z,81.8
2017-10-29T06:40:34.273Z,81.9
2017-10-29T06:41:36.206Z,81.4
2017-10-29T06:42:38.101Z,81.3
2017-10-29T06:43:39.901Z,81.3
2017-10-29T06:44:41.914Z,81.6
2017-10-29T06:45:43.868Z,81.7
2017-10-29T06:46:45.692Z,82.5
2017-10-29T06:47:47.640Z,81.9
2017-10-29T06:48:49.621Z,81.8
2017-10-29T06:49:51.402Z,81.6
2017-10-29T06:50:53.295Z,81.4
2017-10-29T06:51:55.295Z,80.2
2017-10-29T06:52:57.153Z,78.9
2017-10-29T06:53:59.135Z,79.2
2017-10-29T06:55:01.239Z,78.6
2017-10-29T06:56:03.185Z,78.0
2017-10-29T06:57:45.994Z,79.2
2017-10-29T06:58:48.626Z,79.5
2017-10-29T06:59:50.541Z,78.5
2017-10-29T07:00:52.683Z,79.3
2017-10-29T07:02:42.418Z,79.7
2017-10-29T07:03:44.525Z,79.8
2017-10-29T07:04:46.702Z,79.8
2017-10-29T07:05:48.602Z,79.4
2017-10-29T07:06:50.884Z,79.3
2017-10-29T07:07:52.902Z,79.3
2017-10-29T07:08:54.800Z,79.5
2017-10-29T07:09:56.636Z,79.3
2017-10-29T07:10:58.746Z,79.7
2017-10-29T07:12:00.607Z,78.9
2017-10-29T07:13:03.059Z,79.0
2017-10-29T07:14:05.053Z,79.6
2017-10-29T07:15:06.854Z,80.5
2017-10-29T07:16:08.698Z,79.9
2017-10-29T07:17:10.677Z,80.2
2017-10-29T07:18:12.684Z,80.3
2017-10-29T07:19:14.663Z,79.5
2017-10-29T07:20:16.496Z,79.2
2017-10-29T07:21:18.395Z,77.2
2017-10-29T07:22:20.346Z,77.2
2017-10-29T07:23:22.222Z,77.5
2017-10-29T07:24:24.242Z,77.0
2017-10-29T07:25:26.228Z,76.7
2017-10-29T07:26:28.077Z,76.7
2017-10-29T07:27:30.101Z,77.1
2017-10-29T07:28:32.074Z,76.5
2017-10-29T07:29:34.094Z,77.2
2017-10-29T07:30:35.998Z,77.4
2017-10-29T07:31:37.967Z,77.9
2017-10-29T07:32:39.930Z,78.6
2017-10-29T07:33:41.816Z,77.7
2017-10-29T07:34:43.772Z,76.8
2017-10-29T07:35:45.922Z,76.4
2017-10-29T07:36:48.147Z,76.1
2017-10-29T07:37:50.275Z,75.6
2017-10-29T07:39:46.385Z,75.1
2017-10-29T07:40:48.443Z,76.3
2017-10-29T07:41:50.602Z,75.4
2017-10-29T07:42:52.505Z,75.6
2017-10-29T07:43:54.425Z,75.8
2017-10-29T07:44:56.676Z,75.2
2017-10-29T07:46:40.166Z,75.4
2017-10-29T07:47:43.079Z,75.0
2017-10-29T07:48:44.966Z,75.8
2017-10-29T07:49:46.885Z,77.1
2017-10-29T07:51:31.108Z,76.9
2017-10-29T07:53:12.246Z,76.2
2017-10-29T07:54:14.290Z,76.5
2017-10-29T07:55:16.126Z,75.4
2017-10-29T07:56:17.695Z,75.1
2017-10-29T07:57:19.364Z,74.6
2017-10-29T07:58:21.326Z,74.7
2017-10-29T07:59:23.171Z,75.2
2017-10-29T08:00:25.123Z,75.2
2017-10-29T08:01:27.113Z,75.0
2017-10-29T08:02:29.037Z,75.8
2017-10-29T08:03:30.990Z,75.6
2017-10-29T08:04:32.842Z,75.7
2017-10-29T08:05:34.452Z,75.5
2017-10-29T08:06:36.433Z,75.3
2017-10-29T08:07:38.353Z,75.9
2017-10-29T08:08:40.258Z,75.6
2017-10-29T08:09:42.123Z,76.5
2017-10-29T08:10:43.666Z,77.5
2017-10-29T08:11:45.367Z,77.1
2017-10-29T08:12:47.206Z,76.5
2017-10-29T08:13:48.858Z,75.4
2017-10-29T08:14:50.715Z,76.7
2017-10-29T08:15:52.637Z,77.8
2017-10-29T08:16:54.601Z,77.7
2017-10-29T08:17:56.413Z,76.9
2017-10-29T08:18:58.404Z,77.9
2017-10-29T08:20:00.290Z,78.1
2017-10-29T08:21:02.141Z,77.9
2017-10-29T08:22:04.016Z,77.3
2017-10-29T08:23:06.132Z,77.3
2017-10-29T08:24:07.948Z,77.2
2017-10-29T08:25:09.871Z,75.8
2017-10-29T08:26:11.716Z,74.9
2017-10-29T08:27:13.634Z,74.0
2017-10-29T08:28:15.552Z,73.9
2017-10-29T08:29:17.499Z,75.0
2017-10-29T08:30:19.303Z,75.3
2017-10-29T08:31:21.242Z,75.4
2017-10-29T08:32:23.110Z,75.6
2017-10-29T08:33:24.911Z,74.8
2017-10-29T08:34:26.872Z,74.3
2017-10-29T08:35:28.732Z,74.0
2017-10-29T08:36:30.654Z,75.2
2017-10-29T08:37:32.644Z,75.8
2017-10-29T08:38:34.548Z,74.6
2017-10-29T08:39:36.567Z,75.9
2017-10-29T08:40:38.462Z,76.6
2017-10-29T08:41:40.224Z,76.8
2017-10-29T08:42:42.040Z,75.6
2017-10-29T08:43:44.000Z,75.6
2017-10-29T08:44:45.890Z,75.5
2017-10-29T08:45:47.692Z,73.7
2017-10-29T08:46:50.377Z,73.1
2017-10-29T08:47:52.295Z,74.0
2017-10-29T08:48:54.172Z,75.1
2017-10-29T08:49:56.144Z,75.6
2017-10-29T08:50:58.137Z,75.7
2017-10-29T08:52:00.023Z,76.9
2017-10-29T08:53:01.941Z,77.5
2017-10-29T08:54:03.835Z,78.0
2017-10-29T08:55:05.848Z,77.0
2017-10-29T08:56:07.561Z,76.8
2017-10-29T08:57:09.235Z,75.8
2017-10-29T08:58:10.770Z,75.7
2017-10-29T08:59:12.502Z,74.8
2017-10-29T09:00:14.115Z,75.6
2017-10-29T09:01:15.864Z,76.7
2017-10-29T09:02:17.719Z,76.7
2017-10-29T09:03:19.592Z,77.3
2017-10-29T09:04:21.460Z,76.6
2017-10-29T09:05:23.209Z,77.1
2017-10-29T09:06:25.027Z,75.8
2017-10-29T09:07:26.785Z,73.8
2017-10-29T09:08:28.484Z,73.8
2017-10-29T09:09:30.304Z,75.0
2017-10-29T09:10:31.904Z,74.6
2017-10-29T09:11:33.868Z,74.7
2017-10-29T09:12:35.598Z,75.4
2017-10-29T09:13:37.510Z,75.5
2017-10-29T09:14:39.385Z,76.1
2017-10-29T09:15:41.201Z,76.0
2017-10-29T09:16:43.062Z,75.5
2017-10-29T09:17:45.030Z,76.6
2017-10-29T09:18:47.071Z,76.8
2017-10-29T09:19:48.993Z,76.2
2017-10-29T09:20:50.831Z,75.7
2017-10-29T09:21:53.560Z,74.9
2017-10-29T09:22:55.473Z,75.1
2017-10-29T09:23:57.234Z,73.8
2017-10-29T09:24:59.187Z,73.5
2017-10-29T09:26:01.023Z,73.9
2017-10-29T09:27:02.901Z,74.5
2017-10-29T09:28:04.645Z,75.0
2017-10-29T09:29:06.547Z,75.6
2017-10-29T09:30:08.350Z,75.6
2017-10-29T09:31:10.080Z,74.1
2017-10-29T09:32:11.873Z,72.9
2017-10-29T09:33:13.640Z,73.9
2017-10-29T09:34:15.491Z,75.0
2017-10-29T09:35:17.305Z,75.2
2017-10-29T09:36:19.087Z,74.8
2017-10-29T09:37:20.913Z,73.8
2017-10-29T09:38:22.789Z,72.4
2017-10-29T09:39:24.634Z,73.6
2017-10-29T09:40:26.391Z,74.4
2017-10-29T09:41:28.309Z,74.2
2017-10-29T09:42:30.079Z,73.3
2017-10-29T09:43:31.900Z,73.3
2017-10-29T09:44:33.777Z,72.2
2017-10-29T09:45:35.660Z,72.1
2017-10-29T09:46:37.579Z,73.6
2017-10-29T09:47:39.463Z,74.6
2017-10-29T09:48:41.136Z,73.8
2017-10-29T09:49:42.982Z,71.7
2017-10-29T09:50:44.865Z,72.5
2017-10-29T09:51:46.750Z,74.3
2017-10-29T09:52:48.608Z,72.6
2017-10-29T09:53:50.435Z,71.5
2017-10-29T09:54:52.100Z,70.8
2017-10-29T09:55:53.925Z,70.6
2017-10-29T09:56:56.421Z,70.4
2017-10-29T09:57:58.239Z,69.6
2017-10-29T09:59:00.065Z,70.3
2017-10-29T10:00:01.878Z,70.4
2017-10-29T10:01:03.587Z,70.8
2017-10-29T10:02:05.388Z,71.1
2017-10-29T10:03:07.194Z,70.5
2017-10-29T10:04:09.158Z,70.9
2017-10-29T10:05:10.862Z,71.5
2017-10-29T10:06:12.736Z,70.9
2017-10-29T10:07:14.464Z,70.0
2017-10-29T10:08:16.261Z,69.2
2017-10-29T10:09:18.073Z,69.2
2017-10-29T10:10:19.961Z,69.3
2017-10-29T10:11:21.749Z,69.1
2017-10-29T10:12:23.586Z,68.9
2017-10-29T10:13:25.505Z,68.9
2017-10-29T10:14:27.250Z,69.7
2017-10-29T10:15:29.156Z,69.2
2017-10-29T10:16:30.858Z,69.7
2017-10-29T10:17:32.625Z,70.9
2017-10-29T10:18:34.543Z,71.0
2017-10-29T10:19:36.418Z,71.1
2017-10-29T10:20:38.161Z,70.8
2017-10-29T10:21:39.917Z,69.9
2017-10-29T10:22:41.603Z,69.7
2017-10-29T10:23:43.319Z,69.9
2017-10-29T10:24:45.114Z,69.3
2017-10-29T10:25:46.857Z,68.5
2017-10-29T10:26:48.548Z,68.2
2017-10-29T10:27:50.338Z,68.5
2017-10-29T10:28:52.257Z,69.3
2017-10-29T10:29:54.041Z,69.4
2017-10-29T10:30:55.844Z,68.5
2017-10-29T10:31:57.640Z,68.3
2017-10-29T10:33:01.348Z,67.6
2017-10-29T10:34:03.042Z,67.7
2017-10-29T10:35:04.879Z,67.6
2017-10-29T10:36:06.644Z,68.5
2017-10-29T10:37:08.455Z,67.7
2017-10-29T10:38:10.339Z,68.5
2017-10-29T10:39:12.160Z,69.1
2017-10-29T10:40:14.000Z,68.9
2017-10-29T10:41:15.839Z,68.0
2017-10-29T10:42:17.585Z,68.7
2017-10-29T10:43:19.433Z,68.9
2017-10-29T10:44:21.256Z,68.9
2017-10-29T10:45:23.094Z,68.8
2017-10-29T10:46:25.016Z,69.6
2017-10-29T10:47:26.910Z,70.2
2017-10-29T10:48:28.762Z,69.0
2017-10-29T10:49:30.664Z,67.6
2017-10-29T10:50:32.622Z,67.6
2017-10-29T10:51:34.448Z,68.8
2017-10-29T10:52:36.367Z,68.8
2017-10-29T10:53:38.141Z,68.6
2017-10-29T10:54:40.165Z,69.6
2017-10-29T10:55:41.911Z,69.0
2017-10-29T10:56:43.749Z,68.9
2017-10-29T10:57:45.538Z,68.8
2017-10-29T10:58:47.334Z,68.3
2017-10-29T10:59:49.327Z,68.8
2017-10-29T11:00:51.276Z,69.2
2017-10-29T11:01:53.265Z,69.9
2017-10-29T11:02:55.268Z,70.6
2017-10-29T11:03:57.271Z,70.6
2017-10-29T11:04:59.220Z,70.6
2017-10-29T11:06:01.145Z,70.8
2017-10-29T11:07:03.054Z,70.3
2017-10-29T11:08:04.822Z,71.0
2017-10-29T11:09:07.676Z,71.1
2017-10-29T11:10:09.733Z,71.2
2017-10-29T11:11:11.961Z,71.4
2017-10-29T11:12:13.848Z,71.5
2017-10-29T11:13:15.915Z,70.9
2017-10-29T11:14:17.647Z,70.7
2017-10-29T11:15:19.760Z,71.1
2017-10-29T11:16:21.731Z,70.9
2017-10-29T11:17:24.253Z,70.9
2017-10-29T11:18:26.148Z,70.3
2017-10-29T11:19:28.055Z,70.5
2017-10-29T11:20:29.560Z,70.5
2017-10-29T11:21:31.395Z,70.5
2017-10-29T11:22:33.299Z,70.9
2017-10-29T11:23:34.977Z,70.5
2017-10-29T11:24:37.016Z,71.1
2017-10-29T11:25:38.747Z,72.2
2017-10-29T11:26:40.426Z,71.1
2017-10-29T11:27:42.020Z,70.6
2017-10-29T11:28:43.755Z,71.2
2017-10-29T11:29:45.789Z,71.3
2017-10-29T11:30:47.444Z,70.5
2017-10-29T11:31:49.875Z,69.0
2017-10-29T11:32:51.791Z,67.7
2017-10-29T11:33:54.585Z,66.6
2017-10-29T11:34:56.228Z,66.9
2017-10-29T11:35:58.225Z,67.9
2017-10-29T11:37:00.061Z,67.7
2017-10-29T11:38:02.054Z,68.0
2017-10-29T11:39:04.065Z,69.1
2017-10-29T11:40:05.979Z,68.5
2017-10-29T11:41:07.925Z,69.1
2017-10-29T11:42:09.837Z,68.5
2017-10-29T11:43:11.737Z,69.8
2017-10-29T11:44:53.966Z,70.7
2017-10-29T11:45:56.557Z,70.1
2017-10-29T11:46:58.239Z,69.9
2017-10-29T11:47:59.946Z,69.8
2017-10-29T11:49:01.882Z,70.8
2017-10-29T11:50:03.731Z,70.9
2017-10-29T11:51:05.768Z,71.2
2017-10-29T11:52:07.851Z,70.5
2017-10-29T11:53:09.783Z,69.9
2017-10-29T11:54:11.308Z,70.3
2017-10-29T11:55:12.945Z,71.2
2017-10-29T11:56:14.400Z,70.7
2017-10-29T11:57:16.169Z,70.7
2017-10-29T11:58:18.097Z,69.7
2017-10-29T11:59:20.281Z,69.6
2017-10-29T12:00:21.940Z,69.6
2017-10-29T12:01:23.996Z,69.4
2017-10-29T12:02:25.844Z,69.6
2017-10-29T12:03:27.782Z,69.7
2017-10-29T12:04:30.497Z,69.4
2017-10-29T12:05:32.342Z,69.5
2017-10-29T12:06:34.153Z,69.3
2017-10-29T12:07:35.971Z,70.6
2017-10-29T12:08:37.849Z,70.7
2017-10-29T12:09:39.599Z,70.8
2017-10-29T12:10:41.572Z,71.2
2017-10-29T12:11:43.590Z,71.7
2017-10-29T12:12:45.410Z,71.0
2017-10-29T12:13:47.300Z,72.4
2017-10-29T12:14:49.165Z,73.0
2017-10-29T12:15:51.035Z,73.6
2017-10-29T12:16:52.776Z,72.4
2017-10-29T12:17:54.892Z,73.6
2017-10-29T12:18:57.777Z,72.6
2017-10-29T12:20:39.751Z,72.3
2017-10-29T12:21:42.785Z,72.1
2017-10-29T12:22:44.527Z,72.2
2017-10-29T12:23:46.418Z,71.7
2017-10-29T12:24:48.581Z,71.6
2017-10-29T12:25:50.469Z,70.9
2017-10-29T12:26:52.322Z,71.5
2017-10-29T12:27:54.276Z,70.9
2017-10-29T12:28:56.607Z,70.8
2017-10-29T12:29:58.453Z,70.7
2017-10-29T12:31:00.108Z,70.5
2017-10-29T12:32:04.365Z,70.5
2017-10-29T12:33:06.116Z,70.7
2017-10-29T12:34:08.066Z,71.7
2017-10-29T12:35:09.859Z,71.0
2017-10-29T12:36:11.720Z,71.1
2017-10-29T12:37:13.414Z,72.6
2017-10-29T12:38:15.303Z,76.3
2017-10-29T12:39:17.185Z,78.1
2017-10-29T12:40:18.909Z,79.9
2017-10-29T12:41:20.898Z,81.2
2017-10-29T12:42:22.881Z,83.3
2017-10-29T12:43:25.394Z,84.5
2017-10-29T12:44:27.351Z,85.5
2017-10-29T12:45:29.859Z,86.6
2017-10-29T12:46:31.797Z,87.2
2017-10-29T12:47:33.764Z,88.1
2017-10-29T12:48:36.155Z,88.9
2017-10-29T12:49:38.034Z,89.4
2017-10-29T12:50:40.258Z,89.7
2017-10-29T12:51:43.638Z,89.9
2017-10-29T12:52:45.997Z,90.1
2017-10-29T12:53:47.994Z,90.5
2017-10-29T12:54:50.401Z,90.5
2017-10-29T12:55:52.401Z,91.2
2017-10-29T12:56:54.166Z,91.2
2017-10-29T12:57:56.006Z,91.9
2017-10-29T12:58:57.793Z,92.4
2017-10-29T12:59:59.524Z,92.4
2017-10-29T13:01:01.354Z,91.4
2017-10-29T13:02:03.159Z,90.3
2017-10-29T13:03:04.954Z,90.2
2017-10-29T13:04:06.700Z,89.0
2017-10-29T13:05:08.528Z,89.2
2017-10-29T13:06:10.329Z,89.4
2017-10-29T13:07:12.071Z,88.5
2017-10-29T13:08:13.875Z,88.7
2017-10-29T13:09:15.631Z,88.7
2017-10-29T13:10:17.473Z,87.5
2017-10-29T13:11:19.250Z,86.9
2017-10-29T13:12:21.089Z,87.5
2017-10-29T13:13:22.911Z,87.5
2017-10-29T13:14:24.680Z,87.4
2017-10-29T13:15:26.456Z,88.5
2017-10-29T13:16:28.266Z,87.4
2017-10-29T13:17:30.046Z,87.3
2017-10-29T13:18:32.090Z,85.7
2017-10-29T13:19:34.137Z,85.9
2017-10-29T13:20:36.028Z,85.5
2017-10-29T13:21:38.050Z,85.0
2017-10-29T13:22:40.115Z,84.8
2017-10-29T13:23:42.343Z,84.6
2017-10-29T13:24:45.353Z,83.8
2017-10-29T13:25:47.350Z,83.9
2017-10-29T13:26:49.440Z,83.5
2017-10-29T13:27:51.461Z,83.8
2017-10-29T13:28:53.658Z,82.9
2017-10-29T13:29:55.540Z,82.0
2017-10-29T13:30:57.584Z,82.0
2017-10-29T13:31:59.539Z,81.5
2017-10-29T13:33:01.522Z,80.3
2017-10-29T13:34:03.198Z,79.4
2017-10-29T13:35:05.195Z,79.1
2017-10-29T13:36:06.863Z,79.3
2017-10-29T13:37:08.737Z,79.3
2017-10-29T13:38:10.535Z,79.2
2017-10-29T13:39:12.678Z,80.4
2017-10-29T13:40:14.517Z,80.7
2017-10-29T13:41:16.415Z,79.7
2017-10-29T13:42:18.270Z,79.2
2017-10-29T13:43:20.235Z,76.7
2017-10-29T13:44:21.946Z,76.7
2017-10-29T13:45:23.865Z,77.0
2017-10-29T13:46:25.558Z,75.2
2017-10-29T13:47:27.334Z,74.5
2017-10-29T13:48:29.236Z,75.2
2017-10-29T13:49:30.980Z,76.3
2017-10-29T13:50:32.833Z,75.6
2017-10-29T13:51:34.772Z,75.6
2017-10-29T13:52:36.687Z,74.8
2017-10-29T13:53:38.545Z,75.7
2017-10-29T13:54:40.301Z,75.3
2017-10-29T13:55:42.069Z,74.3
2017-10-29T13:56:43.828Z,72.9
2017-10-29T13:57:45.796Z,71.4
2017-10-29T13:58:47.622Z,71.1
2017-10-29T13:59:49.701Z,71.6
2017-10-29T14:00:52.281Z,70.8
2017-10-29T14:01:54.202Z,69.7
2017-10-29T14:02:55.937Z,70.4
2017-10-29T14:03:57.600Z,69.5
2017-10-29T14:04:59.596Z,69.2
2017-10-29T14:06:01.808Z,69.1
2017-10-29T14:07:03.790Z,70.4
2017-10-29T14:08:05.695Z,69.6
2017-10-29T14:09:07.714Z,69.8
2017-10-29T14:10:09.336Z,71.3
2017-10-29T14:11:11.303Z,70.4
2017-10-29T14:12:13.237Z,68.0
2017-10-29T14:13:15.008Z,66.1
2017-10-29T14:14:16.760Z,65.8